Concerto — JJ3855 — position and weather

sailwx.info

Track history (hours):
 
Tides and Currents Weather Stations Pressure Air Temp Water Temp Dewpoint Dewpoint Depression Visibility Wind Speed Wind Dir Waves Ship Positions

Concerto

Last reported at 2017-Feb-20 08:33 UTC. Time now 2017-Feb-20 08:52 UTC.
Position N 34°37' E 135°08'.

Length 74 m; draft 3 m.

Type: Passenger vessel. MMSI: 431000448.

Date/timePositionNaut miles runAvg speedWind from/ knotsBaromVisibWave heightAir tempDewpointWater temp
2017-Feb-20 08:33N 34°37' E 135°08'5 3.7
2017-Feb-20 07:18N 34°41' E 135°11'1 1.0
2017-Feb-20 06:33N 34°40' E 135°11'1 0.8
2017-Feb-20 05:33N 34°41' E 135°11'0 0.0
2017-Feb-20 04:26N 34°41' E 135°11'0 0.5
2017-Feb-20 03:33N 34°40' E 135°12'0 0.5
2017-Feb-20 02:31N 34°41' E 135°11'0 0.0
2017-Feb-20 01:25N 34°41' E 135°11'0 0.0
2017-Feb-20 00:25N 34°41' E 135°11'0 0.0
2017-Feb-19 23:19N 34°41' E 135°11'0 0.0
2017-Feb-19 22:31N 34°41' E 135°11'0 0.0
2017-Feb-19 21:31N 34°41' E 135°11'0 0.0
2017-Feb-19 20:31N 34°41' E 135°11'0 0.0
2017-Feb-19 19:25N 34°41' E 135°11'0 0.0
2017-Feb-19 18:31N 34°41' E 135°11'0 0.0
2017-Feb-19 17:25N 34°41' E 135°11'0 0.0
2017-Feb-19 16:31N 34°41' E 135°11'0 0.0
2017-Feb-19 15:31N 34°41' E 135°11'0 0.0
2017-Feb-19 14:25N 34°41' E 135°11'0 0.0
2017-Feb-19 13:19N 34°41' E 135°11'0 0.0
2017-Feb-19 12:31N 34°41' E 135°11'3 3.1
2017-Feb-19 11:33N 34°38' E 135°10'1 0.5
2017-Feb-19 10:33N 34°38' E 135°10'3 3.1
2017-Feb-19 09:33N 34°41' E 135°11'4 4.3
2017-Feb-19 08:34N 34°37' E 135°08'4 4.2
2017-Feb-19 07:33N 34°40' E 135°11'2 1.6
2017-Feb-19 06:33N 34°39' E 135°11'2 2.1
2017-Feb-19 05:33N 34°41' E 135°11'2 1.6
2017-Feb-19 04:33N 34°39' E 135°11'2 0.1
2017-Feb-18 12:06N 34°41' E 135°11'3 5.7
2017-Feb-18 11:33N 34°38' E 135°10'0 0.2
2017-Feb-18 10:33N 34°38' E 135°10'3 2.9
2017-Feb-18 09:28N 34°41' E 135°11'4 4.8
2017-Feb-18 08:33N 34°37' E 135°08'4 4.4
2017-Feb-18 07:33N 34°41' E 135°11'0 0.0
2017-Feb-18 06:22N 34°41' E 135°11'5 5.9
2017-Feb-18 05:33N 34°37' E 135°07'4 3.7
2017-Feb-18 04:33N 34°37' E 135°12'4 3.6
2017-Feb-18 03:33N 34°41' E 135°11'0 0.0
2017-Feb-18 02:21N 34°41' E 135°11'0 0.0
2017-Feb-18 01:33N 34°41' E 135°11'0 0.0
2017-Feb-18 00:33N 34°41' E 135°11'0 0.0
2017-Feb-17 23:33N 34°41' E 135°11'0 0.0
2017-Feb-17 22:33N 34°41' E 135°11'0 0.0
2017-Feb-17 21:33N 34°41' E 135°11'0 0.0
2017-Feb-17 20:27N 34°41' E 135°11'0 0.0
2017-Feb-17 19:33N 34°41' E 135°11'0 0.0
2017-Feb-17 18:33N 34°41' E 135°11'0 0.0
2017-Feb-17 17:34N 34°41' E 135°11'0 0.0
2017-Feb-17 16:21N 34°41' E 135°11'0 0.0
2017-Feb-17 15:33N 34°41' E 135°11'0 0.0
2017-Feb-17 14:33N 34°41' E 135°11'0 0.0
2017-Feb-17 13:33N 34°41' E 135°11'0 0.0
2017-Feb-17 12:33N 34°41' E 135°11'3 3.1
2017-Feb-17 11:34N 34°38' E 135°10'0 0.3
2017-Feb-17 10:34N 34°38' E 135°10'3 3.2
2017-Feb-17 09:29N 34°41' E 135°11'5 5.2
2017-Feb-17 08:33N 34°37' E 135°07'5 4.8
2017-Feb-17 07:33N 34°41' E 135°11'2 2.1
2017-Feb-17 06:33N 34°39' E 135°11'2 2.1
2017-Feb-17 05:33N 34°41' E 135°11'2 1.6
2017-Feb-17 04:33N 34°39' E 135°11'2 2.3
2017-Feb-17 03:34N 34°38' E 135°09'4 3.3
2017-Feb-17 02:30N 34°41' E 135°11'0 0.0
2017-Feb-17 01:30N 34°41' E 135°11'0 0.0
2017-Feb-17 00:24N 34°41' E 135°11'0 0.0
2017-Feb-16 23:24N 34°41' E 135°11'0 0.0
2017-Feb-16 22:30N 34°41' E 135°11'0 0.0
2017-Feb-16 21:30N 34°41' E 135°11'0 0.0
2017-Feb-16 20:18N 34°41' E 135°11'0 0.0
2017-Feb-16 19:18N 34°41' E 135°11'0 0.0
2017-Feb-16 18:30N 34°41' E 135°11'0 0.0
2017-Feb-16 17:18N 34°41' E 135°11'0 0.0
2017-Feb-16 16:06N 34°41' E 135°11'0 0.0
2017-Feb-16 15:30N 34°41' E 135°11'0 0.0
2017-Feb-16 14:30N 34°41' E 135°11'0 0.0
2017-Feb-16 13:30N 34°41' E 135°11'0 0.0
2017-Feb-16 12:30N 34°41' E 135°11'3 3.7
2017-Feb-16 11:33N 34°38' E 135°09'0 0.4
2017-Feb-16 10:33N 34°38' E 135°09'3 3.0
2017-Feb-16 09:30N 34°41' E 135°11'5 5.4
2017-Feb-16 08:33N 34°37' E 135°07'5 3.7
2017-Feb-16 07:11N 34°41' E 135°11'2 3.5
2017-Feb-16 06:33N 34°39' E 135°11'2 2.3
2017-Feb-16 05:33N 34°41' E 135°11'2 1.7
2017-Feb-16 04:33N 34°39' E 135°11'2 2.2
2017-Feb-16 03:33N 34°38' E 135°09'3 3.2
2017-Feb-16 02:28N 34°41' E 135°11'0 0.0
2017-Feb-16 01:28N 34°41' E 135°11'0 0.0
2017-Feb-16 00:28N 34°41' E 135°11'0 0.0
2017-Feb-15 23:22N 34°41' E 135°11'0 0.0
2017-Feb-15 22:28N 34°41' E 135°11'0 0.0
2017-Feb-15 21:28N 34°41' E 135°11'0 0.0
2017-Feb-15 20:28N 34°41' E 135°11'0 0.0
2017-Feb-15 19:28N 34°41' E 135°11'0 0.0
2017-Feb-15 18:28N 34°41' E 135°11'0 0.0
2017-Feb-15 17:28N 34°41' E 135°11'0 0.0
2017-Feb-15 16:28N 34°41' E 135°11'0 0.0
2017-Feb-15 15:28N 34°41' E 135°11'0 0.0
2017-Feb-15 14:16N 34°41' E 135°11'0 0.0
2017-Feb-15 13:28N 34°41' E 135°11'0 0.0
2017-Feb-15 12:28N 34°41' E 135°11'3 3.6
2017-Feb-15 11:33N 34°38' E 135°10'1 0.7
2017-Feb-15 10:33N 34°38' E 135°09'3 3.0
2017-Feb-15 09:30N 34°41' E 135°11'5 5.3
2017-Feb-15 08:34N 34°37' E 135°07'5 5.0
2017-Feb-15 07:33N 34°41' E 135°11'2 2.2
2017-Feb-15 06:33N 34°39' E 135°11'2 2.2
2017-Feb-15 05:33N 34°41' E 135°11'2 2.0
2017-Feb-15 04:33N 34°39' E 135°11'2 1.8
2017-Feb-15 03:33N 34°38' E 135°09'3 2.8
2017-Feb-15 02:26N 34°41' E 135°11'3 0.2
2017-Feb-14 11:33N 34°38' E 135°10'1 0.5
2017-Feb-14 10:33N 34°38' E 135°09'4 3.1
2017-Feb-14 09:26N 34°41' E 135°11'5 6.0
2017-Feb-14 08:33N 34°37' E 135°07'5 5.1
2017-Feb-14 07:32N 34°41' E 135°11'2 2.4
2017-Feb-14 06:33N 34°38' E 135°11'2 2.3
2017-Feb-14 05:33N 34°41' E 135°11'2 1.9
2017-Feb-14 04:33N 34°39' E 135°11'2 1.9
2017-Feb-14 03:33N 34°38' E 135°09'3 3.2
2017-Feb-14 02:31N 34°41' E 135°11'0 0.0
2017-Feb-14 01:33N 34°41' E 135°11'0 0.0
2017-Feb-14 00:33N 34°41' E 135°11'0 0.0
2017-Feb-13 23:27N 34°41' E 135°11'0 0.0
2017-Feb-13 22:33N 34°41' E 135°11'0 0.0
2017-Feb-13 21:27N 34°41' E 135°11'0 0.0
2017-Feb-13 20:33N 34°41' E 135°11'0 0.0
2017-Feb-13 19:33N 34°41' E 135°11'0 0.0
2017-Feb-13 18:27N 34°41' E 135°11'0 0.0
2017-Feb-13 17:33N 34°41' E 135°11'0 0.0
2017-Feb-13 16:33N 34°41' E 135°11'0 0.0
2017-Feb-13 15:33N 34°41' E 135°11'0 0.0
2017-Feb-13 14:33N 34°41' E 135°11'0 0.0
2017-Feb-13 13:33N 34°41' E 135°11'0 0.0
2017-Feb-13 12:33N 34°41' E 135°11'3 3.1
2017-Feb-13 11:33N 34°38' E 135°10'1 0.6
2017-Feb-13 10:33N 34°38' E 135°09'3 3.1
2017-Feb-13 09:28N 34°41' E 135°11'5 5.6
2017-Feb-13 08:33N 34°37' E 135°07'5 4.4
2017-Feb-13 07:23N 34°41' E 135°11'2 2.7
2017-Feb-13 06:33N 34°39' E 135°11'2 2.3
2017-Feb-13 05:33N 34°41' E 135°11'2 1.8
2017-Feb-13 04:33N 34°39' E 135°11'2 2.0
2017-Feb-13 03:33N 34°38' E 135°09'3 3.0
2017-Feb-13 02:27N 34°41' E 135°11'0 0.0
2017-Feb-13 01:33N 34°41' E 135°11'0 0.0
2017-Feb-13 00:33N 34°41' E 135°11'0 0.0
2017-Feb-12 23:33N 34°41' E 135°11'0 0.0
2017-Feb-12 21:33N 34°41' E 135°11'0 0.0
2017-Feb-12 20:33N 34°41' E 135°11'0 0.0
2017-Feb-12 19:33N 34°41' E 135°11'0 0.0
2017-Feb-12 18:33N 34°41' E 135°11'0 0.0
2017-Feb-12 17:33N 34°41' E 135°11'0 0.0
2017-Feb-12 16:33N 34°41' E 135°11'0 0.0
2017-Feb-12 15:33N 34°41' E 135°11'0 0.0
2017-Feb-12 14:33N 34°41' E 135°11'0 0.0
2017-Feb-12 13:33N 34°41' E 135°11'0 0.0
2017-Feb-12 12:33N 34°41' E 135°11'3 3.1
2017-Feb-12 11:33N 34°38' E 135°10'1 0.5
2017-Feb-12 10:33N 34°38' E 135°09'3 3.1
2017-Feb-12 09:29N 34°41' E 135°11'5 5.4
2017-Feb-12 08:33N 34°37' E 135°07'5 4.0
2017-Feb-12 07:19N 34°41' E 135°11'2 3.1
2017-Feb-12 06:33N 34°38' E 135°11'2 2.3
2017-Feb-12 05:33N 34°41' E 135°11'1 1.4
2017-Feb-12 04:33N 34°39' E 135°11'2 2.3
2017-Feb-12 03:33N 34°38' E 135°09'3 3.2
2017-Feb-12 02:32N 34°41' E 135°11'0 0.0
2017-Feb-12 01:32N 34°41' E 135°11'0 0.0
2017-Feb-12 00:26N 34°41' E 135°11'0 0.0
2017-Feb-11 23:32N 34°41' E 135°11'0 0.0
2017-Feb-11 22:31N 34°41' E 135°11'0 0.0
2017-Feb-11 21:32N 34°41' E 135°11'0 0.0
2017-Feb-11 20:31N 34°41' E 135°11'0 0.0
2017-Feb-11 19:20N 34°41' E 135°11'0 0.0
2017-Feb-11 18:32N 34°41' E 135°11'0 0.0
2017-Feb-11 17:32N 34°41' E 135°11'0 0.0
2017-Feb-11 16:31N 34°41' E 135°11'0 0.0
2017-Feb-11 15:32N 34°41' E 135°11'0 0.0
2017-Feb-11 14:26N 34°41' E 135°11'0 0.0
2017-Feb-11 13:31N 34°41' E 135°11'0 0.0
2017-Feb-11 12:31N 34°41' E 135°11'3 2.9
2017-Feb-11 11:33N 34°38' E 135°10'1 1.0
2017-Feb-11 10:33N 34°38' E 135°09'4 3.5
2017-Feb-11 09:33N 34°41' E 135°11'5 5.0
2017-Feb-11 08:33N 34°37' E 135°07'5 4.9
2017-Feb-11 07:34N 34°41' E 135°11'2 1.7
2017-Feb-11 06:34N 34°39' E 135°11'2 1.7
2017-Feb-11 05:34N 34°41' E 135°11'2 1.8
2017-Feb-11 04:33N 34°39' E 135°11'2 1.8
2017-Feb-11 03:34N 34°38' E 135°10'3 3.1
2017-Feb-11 02:31N 34°41' E 135°11'0 0.0
2017-Feb-11 01:31N 34°41' E 135°11'0 0.0
2017-Feb-11 00:31N 34°41' E 135°11'0 0.0
2017-Feb-10 23:31N 34°41' E 135°11'0 0.0
2017-Feb-10 22:31N 34°41' E 135°11'0 0.0
2017-Feb-10 21:31N 34°41' E 135°11'0 0.0
2017-Feb-10 20:19N 34°41' E 135°11'0 0.0
2017-Feb-10 19:31N 34°41' E 135°11'0 0.0
2017-Feb-10 18:31N 34°41' E 135°11'0 0.0
2017-Feb-10 17:19N 34°41' E 135°11'0 0.0
2017-Feb-10 16:31N 34°41' E 135°11'0 0.0
2017-Feb-10 15:31N 34°41' E 135°11'0 0.0
2017-Feb-10 14:31N 34°41' E 135°11'0 0.0
2017-Feb-10 13:13N 34°41' E 135°11'0 0.0
2017-Feb-10 12:31N 34°41' E 135°11'2 2.0
2017-Feb-10 11:34N 34°39' E 135°11'1 1.5
2017-Feb-10 10:34N 34°38' E 135°10'3 2.9
2017-Feb-10 09:29N 34°41' E 135°11'  
Track history (hours):
 
Tides and Currents Weather Stations Pressure Air Temp Water Temp Dewpoint Dewpoint Depression Visibility Wind Speed Wind Dir Waves Ship Positions

Concerto

Last reported at 2017-Feb-20 08:33 UTC. Time now 2017-Feb-20 08:52 UTC.
Position N 34°37' E 135°08'.

Length 74 m; draft 3 m.

Type: Passenger vessel. MMSI: 431000448.

Date/timePositionNaut miles runAvg speedWind from/ knotsBaromVisibWave heightAir tempDewpointWater temp
2017-Feb-20 08:33N 34°37' E 135°08'5 3.7
2017-Feb-20 07:18N 34°41' E 135°11'1 1.0
2017-Feb-20 06:33N 34°40' E 135°11'1 0.8
2017-Feb-20 05:33N 34°41' E 135°11'0 0.0
2017-Feb-20 04:26N 34°41' E 135°11'0 0.5
2017-Feb-20 03:33N 34°40' E 135°12'0 0.5
2017-Feb-20 02:31N 34°41' E 135°11'0 0.0
2017-Feb-20 01:25N 34°41' E 135°11'0 0.0
2017-Feb-20 00:25N 34°41' E 135°11'0 0.0
2017-Feb-19 23:19N 34°41' E 135°11'0 0.0
2017-Feb-19 22:31N 34°41' E 135°11'0 0.0
2017-Feb-19 21:31N 34°41' E 135°11'0 0.0
2017-Feb-19 20:31N 34°41' E 135°11'0 0.0
2017-Feb-19 19:25N 34°41' E 135°11'0 0.0
2017-Feb-19 18:31N 34°41' E 135°11'0 0.0
2017-Feb-19 17:25N 34°41' E 135°11'0 0.0
2017-Feb-19 16:31N 34°41' E 135°11'0 0.0
2017-Feb-19 15:31N 34°41' E 135°11'0 0.0
2017-Feb-19 14:25N 34°41' E 135°11'0 0.0
2017-Feb-19 13:19N 34°41' E 135°11'0 0.0
2017-Feb-19 12:31N 34°41' E 135°11'3 3.1
2017-Feb-19 11:33N 34°38' E 135°10'1 0.5
2017-Feb-19 10:33N 34°38' E 135°10'3 3.1
2017-Feb-19 09:33N 34°41' E 135°11'4 4.3
2017-Feb-19 08:34N 34°37' E 135°08'4 4.2
2017-Feb-19 07:33N 34°40' E 135°11'2 1.6
2017-Feb-19 06:33N 34°39' E 135°11'2 2.1
2017-Feb-19 05:33N 34°41' E 135°11'2 1.6
2017-Feb-19 04:33N 34°39' E 135°11'2 0.1
2017-Feb-18 12:06N 34°41' E 135°11'3 5.7
2017-Feb-18 11:33N 34°38' E 135°10'0 0.2
2017-Feb-18 10:33N 34°38' E 135°10'3 2.9
2017-Feb-18 09:28N 34°41' E 135°11'4 4.8
2017-Feb-18 08:33N 34°37' E 135°08'4 4.4
2017-Feb-18 07:33N 34°41' E 135°11'0 0.0
2017-Feb-18 06:22N 34°41' E 135°11'5 5.9
2017-Feb-18 05:33N 34°37' E 135°07'4 3.7
2017-Feb-18 04:33N 34°37' E 135°12'4 3.6
2017-Feb-18 03:33N 34°41' E 135°11'0 0.0
2017-Feb-18 02:21N 34°41' E 135°11'0 0.0
2017-Feb-18 01:33N 34°41' E 135°11'0 0.0
2017-Feb-18 00:33N 34°41' E 135°11'0 0.0
2017-Feb-17 23:33N 34°41' E 135°11'0 0.0
2017-Feb-17 22:33N 34°41' E 135°11'0 0.0
2017-Feb-17 21:33N 34°41' E 135°11'0 0.0
2017-Feb-17 20:27N 34°41' E 135°11'0 0.0
2017-Feb-17 19:33N 34°41' E 135°11'0 0.0
2017-Feb-17 18:33N 34°41' E 135°11'0 0.0
2017-Feb-17 17:34N 34°41' E 135°11'0 0.0
2017-Feb-17 16:21N 34°41' E 135°11'0 0.0
2017-Feb-17 15:33N 34°41' E 135°11'0 0.0
2017-Feb-17 14:33N 34°41' E 135°11'0 0.0
2017-Feb-17 13:33N 34°41' E 135°11'0 0.0
2017-Feb-17 12:33N 34°41' E 135°11'3 3.1
2017-Feb-17 11:34N 34°38' E 135°10'0 0.3
2017-Feb-17 10:34N 34°38' E 135°10'3 3.2
2017-Feb-17 09:29N 34°41' E 135°11'5 5.2
2017-Feb-17 08:33N 34°37' E 135°07'5 4.8
2017-Feb-17 07:33N 34°41' E 135°11'2 2.1
2017-Feb-17 06:33N 34°39' E 135°11'2 2.1
2017-Feb-17 05:33N 34°41' E 135°11'2 1.6
2017-Feb-17 04:33N 34°39' E 135°11'2 2.3
2017-Feb-17 03:34N 34°38' E 135°09'4 3.3
2017-Feb-17 02:30N 34°41' E 135°11'0 0.0
2017-Feb-17 01:30N 34°41' E 135°11'0 0.0
2017-Feb-17 00:24N 34°41' E 135°11'0 0.0
2017-Feb-16 23:24N 34°41' E 135°11'0 0.0
2017-Feb-16 22:30N 34°41' E 135°11'0 0.0
2017-Feb-16 21:30N 34°41' E 135°11'0 0.0
2017-Feb-16 20:18N 34°41' E 135°11'0 0.0
2017-Feb-16 19:18N 34°41' E 135°11'0 0.0
2017-Feb-16 18:30N 34°41' E 135°11'0 0.0
2017-Feb-16 17:18N 34°41' E 135°11'0 0.0
2017-Feb-16 16:06N 34°41' E 135°11'0 0.0
2017-Feb-16 15:30N 34°41' E 135°11'0 0.0
2017-Feb-16 14:30N 34°41' E 135°11'0 0.0
2017-Feb-16 13:30N 34°41' E 135°11'0 0.0
2017-Feb-16 12:30N 34°41' E 135°11'3 3.7
2017-Feb-16 11:33N 34°38' E 135°09'0 0.4
2017-Feb-16 10:33N 34°38' E 135°09'3 3.0
2017-Feb-16 09:30N 34°41' E 135°11'5 5.4
2017-Feb-16 08:33N 34°37' E 135°07'5 3.7
2017-Feb-16 07:11N 34°41' E 135°11'2 3.5
2017-Feb-16 06:33N 34°39' E 135°11'2 2.3
2017-Feb-16 05:33N 34°41' E 135°11'2 1.7
2017-Feb-16 04:33N 34°39' E 135°11'2 2.2
2017-Feb-16 03:33N 34°38' E 135°09'3 3.2
2017-Feb-16 02:28N 34°41' E 135°11'0 0.0
2017-Feb-16 01:28N 34°41' E 135°11'0 0.0
2017-Feb-16 00:28N 34°41' E 135°11'0 0.0
2017-Feb-15 23:22N 34°41' E 135°11'0 0.0
2017-Feb-15 22:28N 34°41' E 135°11'0 0.0
2017-Feb-15 21:28N 34°41' E 135°11'0 0.0
2017-Feb-15 20:28N 34°41' E 135°11'0 0.0
2017-Feb-15 19:28N 34°41' E 135°11'0 0.0
2017-Feb-15 18:28N 34°41' E 135°11'0 0.0
2017-Feb-15 17:28N 34°41' E 135°11'0 0.0
2017-Feb-15 16:28N 34°41' E 135°11'0 0.0
2017-Feb-15 15:28N 34°41' E 135°11'0 0.0
2017-Feb-15 14:16N 34°41' E 135°11'0 0.0
2017-Feb-15 13:28N 34°41' E 135°11'0 0.0
2017-Feb-15 12:28N 34°41' E 135°11'3 3.6
2017-Feb-15 11:33N 34°38' E 135°10'1 0.7
2017-Feb-15 10:33N 34°38' E 135°09'3 3.0
2017-Feb-15 09:30N 34°41' E 135°11'5 5.3
2017-Feb-15 08:34N 34°37' E 135°07'5 5.0
2017-Feb-15 07:33N 34°41' E 135°11'2 2.2
2017-Feb-15 06:33N 34°39' E 135°11'2 2.2
2017-Feb-15 05:33N 34°41' E 135°11'2 2.0
2017-Feb-15 04:33N 34°39' E 135°11'2 1.8
2017-Feb-15 03:33N 34°38' E 135°09'3 2.8
2017-Feb-15 02:26N 34°41' E 135°11'3 0.2
2017-Feb-14 11:33N 34°38' E 135°10'1 0.5
2017-Feb-14 10:33N 34°38' E 135°09'4 3.1
2017-Feb-14 09:26N 34°41' E 135°11'5 6.0
2017-Feb-14 08:33N 34°37' E 135°07'5 5.1
2017-Feb-14 07:32N 34°41' E 135°11'2 2.4
2017-Feb-14 06:33N 34°38' E 135°11'2 2.3
2017-Feb-14 05:33N 34°41' E 135°11'2 1.9
2017-Feb-14 04:33N 34°39' E 135°11'2 1.9
2017-Feb-14 03:33N 34°38' E 135°09'3 3.2
2017-Feb-14 02:31N 34°41' E 135°11'0 0.0
2017-Feb-14 01:33N 34°41' E 135°11'0 0.0
2017-Feb-14 00:33N 34°41' E 135°11'0 0.0
2017-Feb-13 23:27N 34°41' E 135°11'0 0.0
2017-Feb-13 22:33N 34°41' E 135°11'0 0.0
2017-Feb-13 21:27N 34°41' E 135°11'0 0.0
2017-Feb-13 20:33N 34°41' E 135°11'0 0.0
2017-Feb-13 19:33N 34°41' E 135°11'0 0.0
2017-Feb-13 18:27N 34°41' E 135°11'0 0.0
2017-Feb-13 17:33N 34°41' E 135°11'0 0.0
2017-Feb-13 16:33N 34°41' E 135°11'0 0.0
2017-Feb-13 15:33N 34°41' E 135°11'0 0.0
2017-Feb-13 14:33N 34°41' E 135°11'0 0.0
2017-Feb-13 13:33N 34°41' E 135°11'0 0.0
2017-Feb-13 12:33N 34°41' E 135°11'3 3.1
2017-Feb-13 11:33N 34°38' E 135°10'1 0.6
2017-Feb-13 10:33N 34°38' E 135°09'3 3.1
2017-Feb-13 09:28N 34°41' E 135°11'5 5.6
2017-Feb-13 08:33N 34°37' E 135°07'5 4.4
2017-Feb-13 07:23N 34°41' E 135°11'2 2.7
2017-Feb-13 06:33N 34°39' E 135°11'2 2.3
2017-Feb-13 05:33N 34°41' E 135°11'2 1.8
2017-Feb-13 04:33N 34°39' E 135°11'2 2.0
2017-Feb-13 03:33N 34°38' E 135°09'3 3.0
2017-Feb-13 02:27N 34°41' E 135°11'0 0.0
2017-Feb-13 01:33N 34°41' E 135°11'0 0.0
2017-Feb-13 00:33N 34°41' E 135°11'0 0.0
2017-Feb-12 23:33N 34°41' E 135°11'0 0.0
2017-Feb-12 21:33N 34°41' E 135°11'0 0.0
2017-Feb-12 20:33N 34°41' E 135°11'0 0.0
2017-Feb-12 19:33N 34°41' E 135°11'0 0.0
2017-Feb-12 18:33N 34°41' E 135°11'0 0.0
2017-Feb-12 17:33N 34°41' E 135°11'0 0.0
2017-Feb-12 16:33N 34°41' E 135°11'0 0.0
2017-Feb-12 15:33N 34°41' E 135°11'0 0.0
2017-Feb-12 14:33N 34°41' E 135°11'0 0.0
2017-Feb-12 13:33N 34°41' E 135°11'0 0.0
2017-Feb-12 12:33N 34°41' E 135°11'3 3.1
2017-Feb-12 11:33N 34°38' E 135°10'1 0.5
2017-Feb-12 10:33N 34°38' E 135°09'3 3.1
2017-Feb-12 09:29N 34°41' E 135°11'5 5.4
2017-Feb-12 08:33N 34°37' E 135°07'5 4.0
2017-Feb-12 07:19N 34°41' E 135°11'2 3.1
2017-Feb-12 06:33N 34°38' E 135°11'2 2.3
2017-Feb-12 05:33N 34°41' E 135°11'1 1.4
2017-Feb-12 04:33N 34°39' E 135°11'2 2.3
2017-Feb-12 03:33N 34°38' E 135°09'3 3.2
2017-Feb-12 02:32N 34°41' E 135°11'0 0.0
2017-Feb-12 01:32N 34°41' E 135°11'0 0.0
2017-Feb-12 00:26N 34°41' E 135°11'0 0.0
2017-Feb-11 23:32N 34°41' E 135°11'0 0.0
2017-Feb-11 22:31N 34°41' E 135°11'0 0.0
2017-Feb-11 21:32N 34°41' E 135°11'0 0.0
2017-Feb-11 20:31N 34°41' E 135°11'0 0.0
2017-Feb-11 19:20N 34°41' E 135°11'0 0.0
2017-Feb-11 18:32N 34°41' E 135°11'0 0.0
2017-Feb-11 17:32N 34°41' E 135°11'0 0.0
2017-Feb-11 16:31N 34°41' E 135°11'0 0.0
2017-Feb-11 15:32N 34°41' E 135°11'0 0.0
2017-Feb-11 14:26N 34°41' E 135°11'0 0.0
2017-Feb-11 13:31N 34°41' E 135°11'0 0.0
2017-Feb-11 12:31N 34°41' E 135°11'3 2.9
2017-Feb-11 11:33N 34°38' E 135°10'1 1.0
2017-Feb-11 10:33N 34°38' E 135°09'4 3.5
2017-Feb-11 09:33N 34°41' E 135°11'5 5.0
2017-Feb-11 08:33N 34°37' E 135°07'5 4.9
2017-Feb-11 07:34N 34°41' E 135°11'2 1.7
2017-Feb-11 06:34N 34°39' E 135°11'2 1.7
2017-Feb-11 05:34N 34°41' E 135°11'2 1.8
2017-Feb-11 04:33N 34°39' E 135°11'2 1.8
2017-Feb-11 03:34N 34°38' E 135°10'3 3.1
2017-Feb-11 02:31N 34°41' E 135°11'0 0.0
2017-Feb-11 01:31N 34°41' E 135°11'0 0.0
2017-Feb-11 00:31N 34°41' E 135°11'0 0.0
2017-Feb-10 23:31N 34°41' E 135°11'0 0.0
2017-Feb-10 22:31N 34°41' E 135°11'0 0.0
2017-Feb-10 21:31N 34°41' E 135°11'0 0.0
2017-Feb-10 20:19N 34°41' E 135°11'0 0.0
2017-Feb-10 19:31N 34°41' E 135°11'0 0.0
2017-Feb-10 18:31N 34°41' E 135°11'0 0.0
2017-Feb-10 17:19N 34°41' E 135°11'0 0.0
2017-Feb-10 16:31N 34°41' E 135°11'0 0.0
2017-Feb-10 15:31N 34°41' E 135°11'0 0.0
2017-Feb-10 14:31N 34°41' E 135°11'0 0.0
2017-Feb-10 13:13N 34°41' E 135°11'0 0.0
2017-Feb-10 12:31N 34°41' E 135°11'2 2.0
2017-Feb-10 11:34N 34°39' E 135°11'1 1.5
2017-Feb-10 10:34N 34°38' E 135°10'3 2.9
2017-Feb-10 09:29N 34°41' E 135°11'  

Dump ship's entire track history